sensor_id;sensor_type;location;lat;lon;timestamp;temperature;humidity
11242;DHT22;5678;52.370;9.006;2023-04-02T00:01:35;3.40;99.90
11242;DHT22;5678;52.370;9.006;2023-04-02T00:04:18;3.60;99.90
11242;DHT22;5678;52.370;9.006;2023-04-02T00:06:52;3.50;99.90
11242;DHT22;5678;52.370;9.006;2023-04-02T00:09:28;3.80;99.90
11242;DHT22;5678;52.370;9.006;2023-04-02T00:11:58;3.40;99.90
11242;DHT22;5678;52.370;9.006;2023-04-02T00:14:45;3.30;99.90
11242;DHT22;5678;52.370;9.006;2023-04-02T00:17:14;3.30;99.90
11242;DHT22;5678;52.370;9.006;2023-04-02T00:19:45;3.20;99.90
11242;DHT22;5678;52.370;9.006;2023-04-02T00:22:18;3.30;99.90
11242;DHT22;5678;52.370;9.006;2023-04-02T00:24:49;3.30;99.90
11242;DHT22;5678;52.370;9.006;2023-04-02T00:27:18;3.30;99.90
11242;DHT22;5678;52.370;9.006;2023-04-02T00:29:48;3.30;99.90
11242;DHT22;5678;52.370;9.006;2023-04-02T00:32:19;3.30;99.90
11242;DHT22;5678;52.370;9.006;2023-04-02T00:34:48;3.30;99.90
11242;DHT22;5678;52.370;9.006;2023-04-02T00:37:19;4.20;99.90
11242;DHT22;5678;52.370;9.006;2023-04-02T00:39:57;3.20;99.90
11242;DHT22;5678;52.370;9.006;2023-04-02T00:42:29;3.20;99.90
11242;DHT22;5678;52.370;9.006;2023-04-02T00:44:57;3.20;99.90
11242;DHT22;5678;52.370;9.006;2023-04-02T00:47:31;3.20;99.90
11242;DHT22;5678;52.370;9.006;2023-04-02T00:50:03;3.30;99.90
11242;DHT22;5678;52.370;9.006;2023-04-02T00:52:34;3.20;99.90
11242;DHT22;5678;52.370;9.006;2023-04-02T00:55:06;3.20;99.90
11242;DHT22;5678;52.370;9.006;2023-04-02T00:57:36;3.30;99.90
11242;DHT22;5678;52.370;9.006;2023-04-02T01:00:19;3.10;99.90
11242;DHT22;5678;52.370;9.006;2023-04-02T01:03:14;3.00;99.90
11242;DHT22;5678;52.370;9.006;2023-04-02T01:05:58;3.00;99.90
11242;DHT22;5678;52.370;9.006;2023-04-02T01:08:39;3.60;99.90
11242;DHT22;5678;52.370;9.006;2023-04-02T01:11:21;2.90;99.90
11242;DHT22;5678;52.370;9.006;2023-04-02T01:13:56;2.80;99.90
11242;DHT22;5678;52.370;9.006;2023-04-02T01:16:34;3.90;99.90
11242;DHT22;5678;52.370;9.006;2023-04-02T01:19:32;2.70;99.90
11242;DHT22;5678;52.370;9.006;2023-04-02T01:22:08;2.70;99.90
11242;DHT22;5678;52.370;9.006;2023-04-02T01:24:45;2.70;99.90
11242;DHT22;5678;52.370;9.006;2023-04-02T01:27:16;2.90;99.90
11242;DHT22;5678;52.370;9.006;2023-04-02T01:29:48;3.20;99.90
11242;DHT22;5678;52.370;9.006;2023-04-02T01:32:22;2.60;99.90
11242;DHT22;5678;52.370;9.006;2023-04-02T01:34:51;2.50;99.90
11242;DHT22;5678;52.370;9.006;2023-04-02T01:37:31;2.50;99.90
11242;DHT22;5678;52.370;9.006;2023-04-02T01:40:12;2.60;99.90
11242;DHT22;5678;52.370;9.006;2023-04-02T01:42:50;2.60;99.90
11242;DHT22;5678;52.370;9.006;2023-04-02T01:45:22;2.60;99.90
11242;DHT22;5678;52.370;9.006;2023-04-02T01:47:50;2.70;99.90
11242;DHT22;5678;52.370;9.006;2023-04-02T01:50:26;2.60;99.90
11242;DHT22;5678;52.370;9.006;2023-04-02T01:52:59;2.60;99.90
11242;DHT22;5678;52.370;9.006;2023-04-02T01:55:34;2.60;99.90
11242;DHT22;5678;52.370;9.006;2023-04-02T01:58:06;2.60;99.90
11242;DHT22;5678;52.370;9.006;2023-04-02T02:00:40;2.60;99.90
11242;DHT22;5678;52.370;9.006;2023-04-02T02:03:11;2.40;99.90
11242;DHT22;5678;52.370;9.006;2023-04-02T02:05:40;2.50;99.90
11242;DHT22;5678;52.370;9.006;2023-04-02T02:08:26;2.50;99.90
11242;DHT22;5678;52.370;9.006;2023-04-02T02:10:56;2.50;99.90
11242;DHT22;5678;52.370;9.006;2023-04-02T02:13:24;2.40;99.90
11242;DHT22;5678;52.370;9.006;2023-04-02T02:15:56;2.40;99.90
11242;DHT22;5678;52.370;9.006;2023-04-02T02:18:25;2.30;99.90
11242;DHT22;5678;52.370;9.006;2023-04-02T02:20:53;2.40;99.90
11242;DHT22;5678;52.370;9.006;2023-04-02T02:23:23;2.30;99.90
11242;DHT22;5678;52.370;9.006;2023-04-02T02:25:53;2.40;99.90
11242;DHT22;5678;52.370;9.006;2023-04-02T02:28:23;2.50;99.90
11242;DHT22;5678;52.370;9.006;2023-04-02T02:30:57;2.30;99.90
11242;DHT22;5678;52.370;9.006;2023-04-02T02:33:27;2.30;99.90
11242;DHT22;5678;52.370;9.006;2023-04-02T02:35:59;2.40;99.90
11242;DHT22;5678;52.370;9.006;2023-04-02T02:38:37;2.40;99.90
11242;DHT22;5678;52.370;9.006;2023-04-02T02:41:12;2.30;99.90
11242;DHT22;5678;52.370;9.006;2023-04-02T02:43:52;2.40;99.90
11242;DHT22;5678;52.370;9.006;2023-04-02T02:46:23;2.40;99.90
11242;DHT22;5678;52.370;9.006;2023-04-02T02:48:53;2.40;99.90
11242;DHT22;5678;52.370;9.006;2023-04-02T02:51:26;2.30;99.90
11242;DHT22;5678;52.370;9.006;2023-04-02T02:53:59;2.40;99.90
11242;DHT22;5678;52.370;9.006;2023-04-02T02:56:30;2.30;99.90
11242;DHT22;5678;52.370;9.006;2023-04-02T02:59:00;2.30;99.90
11242;DHT22;5678;52.370;9.006;2023-04-02T03:01:31;2.30;99.90
11242;DHT22;5678;52.370;9.006;2023-04-02T03:04:00;2.30;99.90
11242;DHT22;5678;52.370;9.006;2023-04-02T03:06:28;2.20;99.90
11242;DHT22;5678;52.370;9.006;2023-04-02T03:09:02;2.20;99.90
11242;DHT22;5678;52.370;9.006;2023-04-02T03:11:35;2.30;99.90
11242;DHT22;5678;52.370;9.006;2023-04-02T03:14:11;2.30;99.90
11242;DHT22;5678;52.370;9.006;2023-04-02T03:16:44;2.30;99.90
11242;DHT22;5678;52.370;9.006;2023-04-02T03:19:21;2.80;99.90
11242;DHT22;5678;52.370;9.006;2023-04-02T03:21:54;3.00;99.90
11242;DHT22;5678;52.370;9.006;2023-04-02T03:24:30;2.20;99.90
11242;DHT22;5678;52.370;9.006;2023-04-02T03:27:05;2.10;99.90
11242;DHT22;5678;52.370;9.006;2023-04-02T03:29:39;2.10;99.90
11242;DHT22;5678;52.370;9.006;2023-04-02T03:32:13;1.90;99.90
11242;DHT22;5678;52.370;9.006;2023-04-02T03:34:46;2.20;99.90
11242;DHT22;5678;52.370;9.006;2023-04-02T03:37:19;2.00;99.90
11242;DHT22;5678;52.370;9.006;2023-04-02T03:39:52;2.00;99.90
11242;DHT22;5678;52.370;9.006;2023-04-02T03:42:23;1.90;99.90
11242;DHT22;5678;52.370;9.006;2023-04-02T03:45:00;2.00;99.90
11242;DHT22;5678;52.370;9.006;2023-04-02T03:47:33;2.10;99.90
11242;DHT22;5678;52.370;9.006;2023-04-02T03:50:06;1.90;99.90
11242;DHT22;5678;52.370;9.006;2023-04-02T03:52:35;2.10;99.90
11242;DHT22;5678;52.370;9.006;2023-04-02T03:55:10;2.00;99.90
11242;DHT22;5678;52.370;9.006;2023-04-02T03:57:46;1.90;99.90
11242;DHT22;5678;52.370;9.006;2023-04-02T04:00:20;2.00;99.90
11242;DHT22;5678;52.370;9.006;2023-04-02T04:02:55;2.00;99.90
11242;DHT22;5678;52.370;9.006;2023-04-02T04:05:28;2.00;99.90
11242;DHT22;5678;52.370;9.006;2023-04-02T04:08:00;2.00;99.90
11242;DHT22;5678;52.370;9.006;2023-04-02T04:10:29;2.10;99.90
11242;DHT22;5678;52.370;9.006;2023-04-02T04:13:03;1.90;99.90
11242;DHT22;5678;52.370;9.006;2023-04-02T04:15:34;2.00;99.90
11242;DHT22;5678;52.370;9.006;2023-04-02T04:18:11;2.00;99.90
11242;DHT22;5678;52.370;9.006;2023-04-02T04:20:49;2.00;99.90
11242;DHT22;5678;52.370;9.006;2023-04-02T04:23:26;1.90;99.90
11242;DHT22;5678;52.370;9.006;2023-04-02T04:25:57;2.00;99.90
11242;DHT22;5678;52.370;9.006;2023-04-02T04:28:31;2.00;99.90
11242;DHT22;5678;52.370;9.006;2023-04-02T04:31:12;2.00;99.90
11242;DHT22;5678;52.370;9.006;2023-04-02T04:33:47;2.10;99.90
11242;DHT22;5678;52.370;9.006;2023-04-02T04:36:21;2.00;99.90
11242;DHT22;5678;52.370;9.006;2023-04-02T04:38:56;2.00;99.90
11242;DHT22;5678;52.370;9.006;2023-04-02T04:41:28;2.00;99.90
11242;DHT22;5678;52.370;9.006;2023-04-02T04:44:01;2.20;99.90
11242;DHT22;5678;52.370;9.006;2023-04-02T04:46:36;2.10;99.90
11242;DHT22;5678;52.370;9.006;2023-04-02T04:49:09;2.20;99.90
11242;DHT22;5678;52.370;9.006;2023-04-02T04:51:44;2.00;99.90
11242;DHT22;5678;52.370;9.006;2023-04-02T04:54:14;2.00;99.90
11242;DHT22;5678;52.370;9.006;2023-04-02T04:56:45;2.00;99.90
11242;DHT22;5678;52.370;9.006;2023-04-02T04:59:19;2.00;99.90
11242;DHT22;5678;52.370;9.006;2023-04-02T05:01:52;2.00;99.90
11242;DHT22;5678;52.370;9.006;2023-04-02T05:04:27;2.00;99.90
11242;DHT22;5678;52.370;9.006;2023-04-02T05:07:02;2.00;99.90
11242;DHT22;5678;52.370;9.006;2023-04-02T05:09:35;1.90;99.90
11242;DHT22;5678;52.370;9.006;2023-04-02T05:12:09;2.50;99.90
11242;DHT22;5678;52.370;9.006;2023-04-02T05:14:43;2.00;99.90
11242;DHT22;5678;52.370;9.006;2023-04-02T05:17:16;2.10;99.90
11242;DHT22;5678;52.370;9.006;2023-04-02T05:19:51;2.20;99.90
11242;DHT22;5678;52.370;9.006;2023-04-02T05:22:27;1.90;99.90
11242;DHT22;5678;52.370;9.006;2023-04-02T05:25:07;2.00;99.90
11242;DHT22;5678;52.370;9.006;2023-04-02T05:27:40;2.10;99.90
11242;DHT22;5678;52.370;9.006;2023-04-02T05:30:27;2.00;99.90
11242;DHT22;5678;52.370;9.006;2023-04-02T05:33:02;1.90;99.90
11242;DHT22;5678;52.370;9.006;2023-04-02T05:35:39;2.00;99.90
11242;DHT22;5678;52.370;9.006;2023-04-02T05:38:18;1.90;99.90
11242;DHT22;5678;52.370;9.006;2023-04-02T05:40:50;2.10;99.90
11242;DHT22;5678;52.370;9.006;2023-04-02T05:43:24;2.00;99.90
11242;DHT22;5678;52.370;9.006;2023-04-02T05:45:55;2.10;99.90
11242;DHT22;5678;52.370;9.006;2023-04-02T05:48:26;2.20;99.90
11242;DHT22;5678;52.370;9.006;2023-04-02T05:50:59;2.50;99.90
11242;DHT22;5678;52.370;9.006;2023-04-02T05:53:30;2.10;99.90
11242;DHT22;5678;52.370;9.006;2023-04-02T05:56:03;2.10;99.90
11242;DHT22;5678;52.370;9.006;2023-04-02T05:58:37;2.20;99.90
11242;DHT22;5678;52.370;9.006;2023-04-02T06:01:19;2.20;99.90
11242;DHT22;5678;52.370;9.006;2023-04-02T06:03:53;2.20;99.90
11242;DHT22;5678;52.370;9.006;2023-04-02T06:06:39;2.30;99.90
11242;DHT22;5678;52.370;9.006;2023-04-02T06:09:12;2.30;99.90
11242;DHT22;5678;52.370;9.006;2023-04-02T06:11:44;2.20;99.90
11242;DHT22;5678;52.370;9.006;2023-04-02T06:14:14;2.40;99.90
11242;DHT22;5678;52.370;9.006;2023-04-02T06:16:44;2.30;99.90
11242;DHT22;5678;52.370;9.006;2023-04-02T06:19:17;2.20;99.90
11242;DHT22;5678;52.370;9.006;2023-04-02T06:21:50;2.40;99.90
11242;DHT22;5678;52.370;9.006;2023-04-02T06:24:22;2.50;99.90
11242;DHT22;5678;52.370;9.006;2023-04-02T06:26:54;2.50;99.90
11242;DHT22;5678;52.370;9.006;2023-04-02T06:29:27;2.40;99.90
11242;DHT22;5678;52.370;9.006;2023-04-02T06:31:58;2.30;99.90
11242;DHT22;5678;52.370;9.006;2023-04-02T06:34:28;2.50;99.90
11242;DHT22;5678;52.370;9.006;2023-04-02T06:37:00;2.50;99.90
11242;DHT22;5678;52.370;9.006;2023-04-02T06:39:29;2.70;99.90
11242;DHT22;5678;52.370;9.006;2023-04-02T06:42:00;2.50;99.90
11242;DHT22;5678;52.370;9.006;2023-04-02T06:44:32;2.80;99.90
11242;DHT22;5678;52.370;9.006;2023-04-02T06:47:04;2.60;99.90
11242;DHT22;5678;52.370;9.006;2023-04-02T06:49:38;2.70;99.90
11242;DHT22;5678;52.370;9.006;2023-04-02T06:52:15;2.50;99.90
11242;DHT22;5678;52.370;9.006;2023-04-02T06:54:46;3.10;99.90
11242;DHT22;5678;52.370;9.006;2023-04-02T06:57:14;2.60;99.90
11242;DHT22;5678;52.370;9.006;2023-04-02T06:59:42;2.80;99.90
11242;DHT22;5678;52.370;9.006;2023-04-02T07:02:24;2.80;99.90
11242;DHT22;5678;52.370;9.006;2023-04-02T07:04:57;2.90;99.90
11242;DHT22;5678;52.370;9.006;2023-04-02T07:07:27;2.70;99.90
11242;DHT22;5678;52.370;9.006;2023-04-02T07:09:55;4.30;99.90
11242;DHT22;5678;52.370;9.006;2023-04-02T07:12:24;2.80;99.90
11242;DHT22;5678;52.370;9.006;2023-04-02T07:14:52;2.80;99.90
11242;DHT22;5678;52.370;9.006;2023-04-02T07:17:20;2.70;99.90
11242;DHT22;5678;52.370;9.006;2023-04-02T07:19:48;2.80;99.90
11242;DHT22;5678;52.370;9.006;2023-04-02T07:22:16;2.90;99.90
11242;DHT22;5678;52.370;9.006;2023-04-02T07:24:46;2.90;99.90
11242;DHT22;5678;52.370;9.006;2023-04-02T07:27:14;3.20;99.90
11242;DHT22;5678;52.370;9.006;2023-04-02T07:29:42;3.00;99.90
11242;DHT22;5678;52.370;9.006;2023-04-02T07:32:11;3.10;99.90
11242;DHT22;5678;52.370;9.006;2023-04-02T07:34:40;2.90;99.90
11242;DHT22;5678;52.370;9.006;2023-04-02T07:37:10;2.90;99.90
11242;DHT22;5678;52.370;9.006;2023-04-02T07:39:39;4.90;99.90
11242;DHT22;5678;52.370;9.006;2023-04-02T07:42:09;4.80;99.90
11242;DHT22;5678;52.370;9.006;2023-04-02T07:44:37;3.20;99.90
11242;DHT22;5678;52.370;9.006;2023-04-02T07:47:05;2.90;99.90
11242;DHT22;5678;52.370;9.006;2023-04-02T07:49:34;3.20;99.90
11242;DHT22;5678;52.370;9.006;2023-04-02T07:52:02;4.80;99.90
11242;DHT22;5678;52.370;9.006;2023-04-02T07:54:30;3.20;99.90
11242;DHT22;5678;52.370;9.006;2023-04-02T07:56:57;3.90;99.90
11242;DHT22;5678;52.370;9.006;2023-04-02T07:59:27;5.10;99.90
11242;DHT22;5678;52.370;9.006;2023-04-02T08:01:55;3.50;99.90
11242;DHT22;5678;52.370;9.006;2023-04-02T08:04:23;3.40;99.90
11242;DHT22;5678;52.370;9.006;2023-04-02T08:06:51;3.60;99.90
11242;DHT22;5678;52.370;9.006;2023-04-02T08:09:19;3.50;99.90
11242;DHT22;5678;52.370;9.006;2023-04-02T08:11:47;4.70;99.90
11242;DHT22;5678;52.370;9.006;2023-04-02T08:14:15;5.40;99.90
11242;DHT22;5678;52.370;9.006;2023-04-02T08:16:46;3.80;99.90
11242;DHT22;5678;52.370;9.006;2023-04-02T08:19:14;4.90;99.90
11242;DHT22;5678;52.370;9.006;2023-04-02T08:21:42;3.90;99.90
11242;DHT22;5678;52.370;9.006;2023-04-02T08:24:10;3.80;99.90
11242;DHT22;5678;52.370;9.006;2023-04-02T08:26:38;5.30;99.90
11242;DHT22;5678;52.370;9.006;2023-04-02T08:29:06;4.50;99.90
11242;DHT22;5678;52.370;9.006;2023-04-02T08:31:34;4.10;99.90
11242;DHT22;5678;52.370;9.006;2023-04-02T08:34:03;4.10;99.90
11242;DHT22;5678;52.370;9.006;2023-04-02T08:36:33;6.10;99.90
11242;DHT22;5678;52.370;9.006;2023-04-02T08:39:02;3.80;99.90
11242;DHT22;5678;52.370;9.006;2023-04-02T08:41:36;4.30;99.90
11242;DHT22;5678;52.370;9.006;2023-04-02T08:44:21;5.40;99.90
11242;DHT22;5678;52.370;9.006;2023-04-02T08:46:53;5.30;99.90
11242;DHT22;5678;52.370;9.006;2023-04-02T08:49:28;4.20;99.90
11242;DHT22;5678;52.370;9.006;2023-04-02T08:51:58;6.10;99.90
11242;DHT22;5678;52.370;9.006;2023-04-02T08:54:28;4.70;99.90
11242;DHT22;5678;52.370;9.006;2023-04-02T08:57:00;4.30;99.90
11242;DHT22;5678;52.370;9.006;2023-04-02T08:59:32;4.50;99.90
11242;DHT22;5678;52.370;9.006;2023-04-02T09:02:09;4.10;99.90
11242;DHT22;5678;52.370;9.006;2023-04-02T09:04:47;4.50;99.90
11242;DHT22;5678;52.370;9.006;2023-04-02T09:07:16;4.50;99.90
11242;DHT22;5678;52.370;9.006;2023-04-02T09:09:46;4.90;99.90
11242;DHT22;5678;52.370;9.006;2023-04-02T09:12:17;5.50;99.90
11242;DHT22;5678;52.370;9.006;2023-04-02T09:14:58;4.70;99.90
11242;DHT22;5678;52.370;9.006;2023-04-02T09:17:31;5.70;99.90
11242;DHT22;5678;52.370;9.006;2023-04-02T09:20:16;5.20;99.90
11242;DHT22;5678;52.370;9.006;2023-04-02T09:22:45;4.90;99.90
11242;DHT22;5678;52.370;9.006;2023-04-02T09:25:17;4.70;99.90
11242;DHT22;5678;52.370;9.006;2023-04-02T09:27:47;4.80;99.90
11242;DHT22;5678;52.370;9.006;2023-04-02T09:30:26;4.30;99.90
11242;DHT22;5678;52.370;9.006;2023-04-02T09:32:58;4.80;99.90
11242;DHT22;5678;52.370;9.006;2023-04-02T09:35:30;6.70;99.90
11242;DHT22;5678;52.370;9.006;2023-04-02T09:38:17;4.80;99.90
11242;DHT22;5678;52.370;9.006;2023-04-02T09:40:49;4.90;99.90
11242;DHT22;5678;52.370;9.006;2023-04-02T09:43:19;7.50;99.90
11242;DHT22;5678;52.370;9.006;2023-04-02T09:45:58;5.50;99.90
11242;DHT22;5678;52.370;9.006;2023-04-02T09:48:28;6.80;99.90
11242;DHT22;5678;52.370;9.006;2023-04-02T09:51:08;5.00;99.90
11242;DHT22;5678;52.370;9.006;2023-04-02T09:53:38;5.20;99.90
11242;DHT22;5678;52.370;9.006;2023-04-02T09:56:15;6.00;99.90
11242;DHT22;5678;52.370;9.006;2023-04-02T09:58:44;5.30;99.90
11242;DHT22;5678;52.370;9.006;2023-04-02T10:01:30;6.50;99.90
11242;DHT22;5678;52.370;9.006;2023-04-02T10:04:02;5.50;99.90
11242;DHT22;5678;52.370;9.006;2023-04-02T10:06:32;5.50;99.90
11242;DHT22;5678;52.370;9.006;2023-04-02T10:09:19;5.40;99.90
11242;DHT22;5678;52.370;9.006;2023-04-02T10:11:49;5.80;99.90
11242;DHT22;5678;52.370;9.006;2023-04-02T10:14:20;6.40;99.90
11242;DHT22;5678;52.370;9.006;2023-04-02T10:16:51;7.00;99.90
11242;DHT22;5678;52.370;9.006;2023-04-02T10:19:25;5.40;99.90
11242;DHT22;5678;52.370;9.006;2023-04-02T10:21:57;6.60;99.90
11242;DHT22;5678;52.370;9.006;2023-04-02T10:24:26;7.00;99.90
11242;DHT22;5678;52.370;9.006;2023-04-02T10:27:06;6.10;99.90
11242;DHT22;5678;52.370;9.006;2023-04-02T10:29:50;6.30;99.90
11242;DHT22;5678;52.370;9.006;2023-04-02T10:32:25;6.00;99.90
11242;DHT22;5678;52.370;9.006;2023-04-02T10:35:00;7.80;99.90
11242;DHT22;5678;52.370;9.006;2023-04-02T10:40:28;6.00;99.90
11242;DHT22;5678;52.370;9.006;2023-04-02T10:45:56;6.40;99.90
11242;DHT22;5678;52.370;9.006;2023-04-02T10:48:30;6.60;99.90
11242;DHT22;5678;52.370;9.006;2023-04-02T10:51:06;7.90;99.90
11242;DHT22;5678;52.370;9.006;2023-04-02T10:53:46;6.60;99.90
11242;DHT22;5678;52.370;9.006;2023-04-02T10:56:18;7.40;99.90
11242;DHT22;5678;52.370;9.006;2023-04-02T10:58:53;6.50;99.90
11242;DHT22;5678;52.370;9.006;2023-04-02T11:01:26;6.40;99.90
11242;DHT22;5678;52.370;9.006;2023-04-02T11:03:58;7.90;99.90
11242;DHT22;5678;52.370;9.006;2023-04-02T11:06:31;6.70;99.90
11242;DHT22;5678;52.370;9.006;2023-04-02T11:09:04;6.80;99.90
11242;DHT22;5678;52.370;9.006;2023-04-02T11:11:37;6.70;99.90
11242;DHT22;5678;52.370;9.006;2023-04-02T11:14:11;6.50;99.90
11242;DHT22;5678;52.370;9.006;2023-04-02T11:16:41;6.60;99.90
11242;DHT22;5678;52.370;9.006;2023-04-02T11:19:23;6.20;99.90
11242;DHT22;5678;52.370;9.006;2023-04-02T11:21:52;7.50;99.90
11242;DHT22;5678;52.370;9.006;2023-04-02T11:24:42;8.00;99.90
11242;DHT22;5678;52.370;9.006;2023-04-02T11:27:17;7.30;99.90
11242;DHT22;5678;52.370;9.006;2023-04-02T11:29:49;7.00;99.90
11242;DHT22;5678;52.370;9.006;2023-04-02T11:32:38;6.80;99.90
11242;DHT22;5678;52.370;9.006;2023-04-02T11:35:34;6.80;99.90
11242;DHT22;5678;52.370;9.006;2023-04-02T11:41:10;6.80;99.90
11242;DHT22;5678;52.370;9.006;2023-04-02T11:43:58;6.60;99.90
11242;DHT22;5678;52.370;9.006;2023-04-02T11:46:43;6.60;99.90
11242;DHT22;5678;52.370;9.006;2023-04-02T11:49:55;6.80;99.90
11242;DHT22;5678;52.370;9.006;2023-04-02T11:52:26;7.00;99.90
11242;DHT22;5678;52.370;9.006;2023-04-02T11:55:05;7.20;99.90
11242;DHT22;5678;52.370;9.006;2023-04-02T11:58:11;7.70;99.90
11242;DHT22;5678;52.370;9.006;2023-04-02T12:01:16;7.70;99.90
11242;DHT22;5678;52.370;9.006;2023-04-02T12:04:00;7.40;99.90
11242;DHT22;5678;52.370;9.006;2023-04-02T12:06:46;7.80;99.90
11242;DHT22;5678;52.370;9.006;2023-04-02T12:09:20;8.30;99.90
11242;DHT22;5678;52.370;9.006;2023-04-02T12:11:50;8.40;99.90
11242;DHT22;5678;52.370;9.006;2023-04-02T12:14:32;8.40;99.90
11242;DHT22;5678;52.370;9.006;2023-04-02T12:17:16;8.80;99.90
11242;DHT22;5678;52.370;9.006;2023-04-02T12:19:47;8.00;99.90
11242;DHT22;5678;52.370;9.006;2023-04-02T12:22:19;7.70;99.90
11242;DHT22;5678;52.370;9.006;2023-04-02T12:24:48;8.70;99.90
11242;DHT22;5678;52.370;9.006;2023-04-02T12:27:18;8.10;99.90
11242;DHT22;5678;52.370;9.006;2023-04-02T12:29:50;8.00;99.90
11242;DHT22;5678;52.370;9.006;2023-04-02T12:32:25;7.90;99.90
11242;DHT22;5678;52.370;9.006;2023-04-02T12:34:57;8.30;99.90
11242;DHT22;5678;52.370;9.006;2023-04-02T12:37:28;8.50;99.90
11242;DHT22;5678;52.370;9.006;2023-04-02T12:39:58;8.50;99.90
11242;DHT22;5678;52.370;9.006;2023-04-02T12:42:29;8.90;99.90
11242;DHT22;5678;52.370;9.006;2023-04-02T12:45:00;9.00;99.90
11242;DHT22;5678;52.370;9.006;2023-04-02T12:47:28;8.90;99.90
11242;DHT22;5678;52.370;9.006;2023-04-02T12:49:57;8.90;99.90
11242;DHT22;5678;52.370;9.006;2023-04-02T12:52:27;10.00;99.90
11242;DHT22;5678;52.370;9.006;2023-04-02T12:54:58;9.00;99.90
11242;DHT22;5678;52.370;9.006;2023-04-02T12:57:32;9.20;99.90
11242;DHT22;5678;52.370;9.006;2023-04-02T13:00:29;9.30;99.90
11242;DHT22;5678;52.370;9.006;2023-04-02T13:03:00;9.40;99.90
11242;DHT22;5678;52.370;9.006;2023-04-02T13:05:34;10.40;99.90
11242;DHT22;5678;52.370;9.006;2023-04-02T13:08:05;9.30;99.90
11242;DHT22;5678;52.370;9.006;2023-04-02T13:10:33;10.30;99.90
11242;DHT22;5678;52.370;9.006;2023-04-02T13:13:02;9.30;99.90
11242;DHT22;5678;52.370;9.006;2023-04-02T13:15:39;9.10;99.90
11242;DHT22;5678;52.370;9.006;2023-04-02T13:18:18;11.90;99.90
11242;DHT22;5678;52.370;9.006;2023-04-02T13:20:55;8.80;99.90
11242;DHT22;5678;52.370;9.006;2023-04-02T13:23:31;9.90;99.90
11242;DHT22;5678;52.370;9.006;2023-04-02T13:26:00;9.70;99.90
11242;DHT22;5678;52.370;9.006;2023-04-02T13:28:29;9.10;99.90
11242;DHT22;5678;52.370;9.006;2023-04-02T13:30:58;9.00;99.90
11242;DHT22;5678;52.370;9.006;2023-04-02T13:33:26;9.20;99.90
11242;DHT22;5678;52.370;9.006;2023-04-02T13:35:54;9.60;99.90
11242;DHT22;5678;52.370;9.006;2023-04-02T13:38:22;9.60;99.90
11242;DHT22;5678;52.370;9.006;2023-04-02T13:40:50;9.10;99.90
11242;DHT22;5678;52.370;9.006;2023-04-02T13:43:18;9.20;99.90
11242;DHT22;5678;52.370;9.006;2023-04-02T13:45:49;9.30;99.90
11242;DHT22;5678;52.370;9.006;2023-04-02T13:48:19;9.60;99.90
11242;DHT22;5678;52.370;9.006;2023-04-02T13:50:52;9.20;99.90
11242;DHT22;5678;52.370;9.006;2023-04-02T13:53:22;9.20;99.90
11242;DHT22;5678;52.370;9.006;2023-04-02T13:55:50;9.10;99.90
11242;DHT22;5678;52.370;9.006;2023-04-02T13:58:19;9.20;99.90
11242;DHT22;5678;52.370;9.006;2023-04-02T14:00:47;8.60;99.90
11242;DHT22;5678;52.370;9.006;2023-04-02T14:03:20;8.70;99.90
11242;DHT22;5678;52.370;9.006;2023-04-02T14:05:55;10.10;99.90
11242;DHT22;5678;52.370;9.006;2023-04-02T14:08:35;9.10;99.90
11242;DHT22;5678;52.370;9.006;2023-04-02T14:11:20;9.30;99.90
11242;DHT22;5678;52.370;9.006;2023-04-02T14:14:17;9.60;99.90
11242;DHT22;5678;52.370;9.006;2023-04-02T14:17:00;9.70;99.90
11242;DHT22;5678;52.370;9.006;2023-04-02T14:19:47;9.90;99.90
11242;DHT22;5678;52.370;9.006;2023-04-02T14:22:29;9.80;99.90
11242;DHT22;5678;52.370;9.006;2023-04-02T14:25:07;9.50;99.90
11242;DHT22;5678;52.370;9.006;2023-04-02T14:27:44;9.80;99.90
11242;DHT22;5678;52.370;9.006;2023-04-02T14:30:20;10.20;99.90
11242;DHT22;5678;52.370;9.006;2023-04-02T14:32:55;10.30;99.90
11242;DHT22;5678;52.370;9.006;2023-04-02T14:35:34;10.00;99.90
11242;DHT22;5678;52.370;9.006;2023-04-02T14:38:10;9.70;99.90
11242;DHT22;5678;52.370;9.006;2023-04-02T14:40:44;9.80;99.90
11242;DHT22;5678;52.370;9.006;2023-04-02T14:43:18;9.40;99.90
11242;DHT22;5678;52.370;9.006;2023-04-02T14:45:55;9.80;99.90
11242;DHT22;5678;52.370;9.006;2023-04-02T14:48:34;9.90;99.90
11242;DHT22;5678;52.370;9.006;2023-04-02T14:51:12;9.40;99.90
11242;DHT22;5678;52.370;9.006;2023-04-02T14:53:49;9.00;99.90
11242;DHT22;5678;52.370;9.006;2023-04-02T14:56:20;9.20;99.90
11242;DHT22;5678;52.370;9.006;2023-04-02T14:58:56;9.20;99.90
11242;DHT22;5678;52.370;9.006;2023-04-02T15:01:34;9.20;99.90
11242;DHT22;5678;52.370;9.006;2023-04-02T15:04:07;10.60;99.90
11242;DHT22;5678;52.370;9.006;2023-04-02T15:06:40;9.00;99.90
11242;DHT22;5678;52.370;9.006;2023-04-02T15:09:14;9.10;99.90
11242;DHT22;5678;52.370;9.006;2023-04-02T15:11:46;9.50;99.90
11242;DHT22;5678;52.370;9.006;2023-04-02T15:14:19;9.70;99.90
11242;DHT22;5678;52.370;9.006;2023-04-02T15:16:48;9.30;99.90
11242;DHT22;5678;52.370;9.006;2023-04-02T15:19:17;9.10;99.90
11242;DHT22;5678;52.370;9.006;2023-04-02T15:22:06;9.50;99.90
11242;DHT22;5678;52.370;9.006;2023-04-02T15:24:40;9.50;99.90
11242;DHT22;5678;52.370;9.006;2023-04-02T15:27:28;9.40;99.90
11242;DHT22;5678;52.370;9.006;2023-04-02T15:30:03;9.50;99.90
11242;DHT22;5678;52.370;9.006;2023-04-02T15:32:35;9.60;99.90
11242;DHT22;5678;52.370;9.006;2023-04-02T15:35:20;10.20;99.90
11242;DHT22;5678;52.370;9.006;2023-04-02T15:37:58;9.60;99.90
11242;DHT22;5678;52.370;9.006;2023-04-02T15:40:53;9.40;99.90
11242;DHT22;5678;52.370;9.006;2023-04-02T15:43:27;9.20;99.90
11242;DHT22;5678;52.370;9.006;2023-04-02T15:46:09;9.00;99.90
11242;DHT22;5678;52.370;9.006;2023-04-02T15:49:04;9.00;99.90
11242;DHT22;5678;52.370;9.006;2023-04-02T15:51:49;9.10;99.90
11242;DHT22;5678;52.370;9.006;2023-04-02T15:54:35;9.10;99.90
11242;DHT22;5678;52.370;9.006;2023-04-02T15:57:15;8.90;99.90
11242;DHT22;5678;52.370;9.006;2023-04-02T15:59:56;9.10;99.90
11242;DHT22;5678;52.370;9.006;2023-04-02T16:02:40;9.20;99.90
11242;DHT22;5678;52.370;9.006;2023-04-02T16:05:17;9.30;99.90
11242;DHT22;5678;52.370;9.006;2023-04-02T16:08:10;9.50;99.90
11242;DHT22;5678;52.370;9.006;2023-04-02T16:10:42;8.80;99.90
11242;DHT22;5678;52.370;9.006;2023-04-02T16:13:17;10.80;99.90
11242;DHT22;5678;52.370;9.006;2023-04-02T16:15:50;9.20;99.90
11242;DHT22;5678;52.370;9.006;2023-04-02T16:18:27;9.00;99.90
11242;DHT22;5678;52.370;9.006;2023-04-02T16:21:00;8.80;99.90
11242;DHT22;5678;52.370;9.006;2023-04-02T16:23:33;9.70;99.90
11242;DHT22;5678;52.370;9.006;2023-04-02T16:26:09;8.00;99.90
11242;DHT22;5678;52.370;9.006;2023-04-02T16:28:50;8.40;99.90
11242;DHT22;5678;52.370;9.006;2023-04-02T16:31:24;8.40;99.90
11242;DHT22;5678;52.370;9.006;2023-04-02T16:33:59;8.80;99.90
11242;DHT22;5678;52.370;9.006;2023-04-02T16:36:40;8.60;99.90
11242;DHT22;5678;52.370;9.006;2023-04-02T16:39:19;8.70;99.90
11242;DHT22;5678;52.370;9.006;2023-04-02T16:41:57;8.70;99.90
11242;DHT22;5678;52.370;9.006;2023-04-02T16:44:38;8.80;99.90
11242;DHT22;5678;52.370;9.006;2023-04-02T16:47:26;8.60;99.90
11242;DHT22;5678;52.370;9.006;2023-04-02T16:50:00;8.60;99.90
11242;DHT22;5678;52.370;9.006;2023-04-02T16:52:39;8.50;99.90
11242;DHT22;5678;52.370;9.006;2023-04-02T16:55:34;8.00;99.90
11242;DHT22;5678;52.370;9.006;2023-04-02T16:58:18;8.50;99.90